QFA646 YPPH-YSSY
Flight info
| Callsign | QFA646 |
|---|---|
| Flight time | N/A |
| Altitude | 37000 |
| Route | PH H18 MUBID J21 ABTOD/N0453F390 J21 BORLI H205 CULIN Y59 RIVET |
| Aircraft | A20N/M-SDE2E3FGHIRWXY/LB1 |
Departure
| Time | 2026-05-04 05:09 |
|---|---|
| Airport | Perth International Airport (YPPH) |
Arrival
| Time | N/A |
|---|---|
| Airport | Sydney Kingsford Smith International Airport (YSSY) |
| Time | Latitude | Longitude | Altitude | Speed | Heading |
|---|---|---|---|---|---|
| 2026-05-04 04:35 | -31.93291 | 115.96200 | 55 ft | 0 kts | 255° |
| 2026-05-04 04:58 | -31.93286 | 115.96218 | 52 ft | 4 kts | 252° |
| 2026-05-04 04:58 | -31.93276 | 115.96247 | 48 ft | 4 kts | 240° |
| 2026-05-04 04:58 | -31.93260 | 115.96272 | 53 ft | 4 kts | 218° |
| 2026-05-04 04:58 | -31.93250 | 115.96281 | 48 ft | 1 kts | 211° |
| 2026-05-04 04:59 | -31.93249 | 115.96282 | 49 ft | 0 kts | 211° |
| 2026-05-04 05:02 | -31.93250 | 115.96281 | 48 ft | 1 kts | 209° |
| 2026-05-04 05:03 | -31.93272 | 115.96286 | 49 ft | 6 kts | 156° |
| 2026-05-04 05:03 | -31.93329 | 115.96313 | 48 ft | 11 kts | 170° |
| 2026-05-04 05:04 | -31.93586 | 115.96199 | 56 ft | 14 kts | 194° |
| 2026-05-04 05:04 | -31.93688 | 115.96177 | 53 ft | 12 kts | 177° |
| 2026-05-04 05:04 | -31.93761 | 115.96183 | 53 ft | 9 kts | 194° |
| 2026-05-04 05:06 | -31.93995 | 115.95863 | 60 ft | 0 kts | 148° |
| 2026-05-04 05:06 | -31.93997 | 115.95865 | 59 ft | 1 kts | 148° |
| 2026-05-04 05:06 | -31.94018 | 115.95880 | 62 ft | 6 kts | 148° |
| 2026-05-04 05:07 | -31.94067 | 115.95917 | 61 ft | 10 kts | 145° |
| 2026-05-04 05:07 | -31.94065 | 115.95991 | 63 ft | 11 kts | 61° |
| 2026-05-04 05:07 | -31.94011 | 115.96092 | 61 ft | 27 kts | 58° |
| 2026-05-04 05:09 | -31.89603 | 116.04518 | 3434 ft | 218 kts | 60° |
| 2026-05-04 05:09 | -31.88797 | 116.06130 | 3879 ft | 239 kts | 60° |
| 2026-05-04 05:10 | -31.88208 | 116.07308 | 4200 ft | 254 kts | 60° |
| 2026-05-04 05:10 | -31.87297 | 116.09128 | 4947 ft | 262 kts | 60° |
| 2026-05-04 05:10 | -31.86361 | 116.10999 | 5744 ft | 266 kts | 62° |
| 2026-05-04 05:10 | -31.85574 | 116.12951 | 6719 ft | 265 kts | 71° |
| 2026-05-04 05:11 | -31.85087 | 116.15051 | 7523 ft | 268 kts | 79° |
| 2026-05-04 05:11 | -31.84691 | 116.17189 | 8315 ft | 273 kts | 79° |
| 2026-05-04 05:11 | -31.84274 | 116.19385 | 9134 ft | 277 kts | 78° |
| 2026-05-04 05:11 | -31.83844 | 116.21613 | 9944 ft | 281 kts | 79° |
| 2026-05-04 05:12 | -31.83402 | 116.23890 | 10584 ft | 292 kts | 79° |
| 2026-05-04 05:12 | -31.82932 | 116.26305 | 10852 ft | 315 kts | 78° |
| 2026-05-04 05:12 | -31.82428 | 116.28898 | 11142 ft | 333 kts | 78° |
| 2026-05-04 05:12 | -31.81906 | 116.31577 | 11812 ft | 338 kts | 78° |
| 2026-05-04 05:13 | -31.81376 | 116.34286 | 12575 ft | 342 kts | 79° |
| 2026-05-04 05:13 | -31.80840 | 116.37027 | 13286 ft | 346 kts | 79° |
| 2026-05-04 05:13 | -31.80298 | 116.39802 | 14002 ft | 350 kts | 79° |
| 2026-05-04 05:13 | -31.79748 | 116.42607 | 14651 ft | 354 kts | 79° |
| 2026-05-04 05:14 | -31.79191 | 116.45453 | 15234 ft | 359 kts | 79° |
| 2026-05-04 05:14 | -31.78628 | 116.48329 | 15829 ft | 364 kts | 79° |
| 2026-05-04 05:14 | -31.78055 | 116.51247 | 16419 ft | 368 kts | 79° |
| 2026-05-04 05:14 | -31.77474 | 116.54202 | 16999 ft | 373 kts | 79° |
| 2026-05-04 05:15 | -31.76888 | 116.57186 | 17584 ft | 377 kts | 78° |
| 2026-05-04 05:15 | -31.76291 | 116.60209 | 18156 ft | 382 kts | 78° |
| 2026-05-04 05:15 | -31.75688 | 116.63268 | 18707 ft | 387 kts | 78° |
| 2026-05-04 05:15 | -31.75077 | 116.66360 | 19220 ft | 390 kts | 78° |
| 2026-05-04 05:16 | -31.74460 | 116.69474 | 19734 ft | 393 kts | 78° |
| 2026-05-04 05:16 | -31.73837 | 116.72615 | 20239 ft | 397 kts | 78° |
| 2026-05-04 05:16 | -31.73208 | 116.75784 | 20749 ft | 400 kts | 78° |
| 2026-05-04 05:16 | -31.72573 | 116.78978 | 21260 ft | 403 kts | 78° |
| 2026-05-04 05:17 | -31.71940 | 116.82156 | 21777 ft | 406 kts | 78° |
| 2026-05-04 05:17 | -31.71293 | 116.85400 | 22257 ft | 410 kts | 78° |
| 2026-05-04 05:17 | -31.70630 | 116.88720 | 22745 ft | 413 kts | 78° |
| 2026-05-04 05:17 | -31.69980 | 116.91973 | 23226 ft | 417 kts | 78° |
| 2026-05-04 05:18 | -31.69314 | 116.95298 | 23695 ft | 420 kts | 78° |
| 2026-05-04 05:18 | -31.68641 | 116.98652 | 24124 ft | 424 kts | 78° |
| 2026-05-04 05:18 | -31.67963 | 117.02028 | 24535 ft | 426 kts | 78° |
| 2026-05-04 05:18 | -31.67351 | 117.05440 | 24929 ft | 428 kts | 84° |
| 2026-05-04 05:19 | -31.67273 | 117.08929 | 25276 ft | 429 kts | 97° |
| 2026-05-04 05:19 | -31.67823 | 117.12362 | 25644 ft | 429 kts | 109° |
| 2026-05-04 05:19 | -31.68840 | 117.15657 | 26006 ft | 431 kts | 112° |
| 2026-05-04 05:19 | -31.69894 | 117.18961 | 26374 ft | 434 kts | 112° |
| 2026-05-04 05:20 | -31.70949 | 117.22293 | 26725 ft | 437 kts | 112° |
| 2026-05-04 05:20 | -31.72005 | 117.25644 | 27072 ft | 439 kts | 112° |
| 2026-05-04 05:20 | -31.73069 | 117.29025 | 27405 ft | 443 kts | 112° |
| 2026-05-04 05:20 | -31.74136 | 117.32425 | 27743 ft | 445 kts | 112° |
| 2026-05-04 05:21 | -31.75210 | 117.35850 | 28063 ft | 448 kts | 112° |
| 2026-05-04 05:21 | -31.76289 | 117.39294 | 28379 ft | 451 kts | 112° |
| 2026-05-04 05:21 | -31.77373 | 117.42756 | 28678 ft | 453 kts | 112° |
| 2026-05-04 05:21 | -31.78464 | 117.46248 | 28976 ft | 456 kts | 112° |
| 2026-05-04 05:22 | -31.79558 | 117.49751 | 29270 ft | 458 kts | 112° |
| 2026-05-04 05:22 | -31.80658 | 117.53277 | 29550 ft | 461 kts | 112° |
| 2026-05-04 05:22 | -31.81762 | 117.56820 | 29824 ft | 463 kts | 112° |
| 2026-05-04 05:22 | -31.82871 | 117.60384 | 30099 ft | 465 kts | 112° |
| 2026-05-04 05:23 | -31.83987 | 117.63973 | 30369 ft | 468 kts | 111° |
| 2026-05-04 05:23 | -31.85091 | 117.67527 | 30616 ft | 470 kts | 111° |
| 2026-05-04 05:23 | -31.86214 | 117.71148 | 30848 ft | 472 kts | 111° |
| 2026-05-04 05:23 | -31.87340 | 117.74782 | 31086 ft | 474 kts | 111° |
| 2026-05-04 05:24 | -31.88472 | 117.78440 | 31322 ft | 477 kts | 111° |
| 2026-05-04 05:24 | -31.89605 | 117.82107 | 31598 ft | 477 kts | 111° |
| 2026-05-04 05:24 | -31.90740 | 117.85782 | 31894 ft | 478 kts | 111° |
| 2026-05-04 05:24 | -31.91874 | 117.89460 | 32197 ft | 478 kts | 111° |
| 2026-05-04 05:25 | -31.93005 | 117.93135 | 32492 ft | 478 kts | 111° |
| 2026-05-04 05:25 | -31.94136 | 117.96811 | 32779 ft | 478 kts | 111° |
| 2026-05-04 05:25 | -31.95268 | 118.00496 | 33071 ft | 478 kts | 111° |
| 2026-05-04 05:25 | -31.96397 | 118.04174 | 33347 ft | 478 kts | 111° |
| 2026-05-04 05:26 | -31.97526 | 118.07856 | 33618 ft | 478 kts | 111° |
| 2026-05-04 05:26 | -31.98656 | 118.11546 | 33871 ft | 478 kts | 111° |
| 2026-05-04 05:26 | -31.99782 | 118.15230 | 34131 ft | 479 kts | 111° |
| 2026-05-04 05:26 | -32.00910 | 118.18922 | 34369 ft | 479 kts | 111° |
| 2026-05-04 05:27 | -32.02036 | 118.22614 | 34595 ft | 479 kts | 111° |
| 2026-05-04 05:28 | -32.07626 | 118.49095 | 35970 ft | 480 kts | 94° |
| 2026-05-04 05:29 | -32.07814 | 118.53022 | 36153 ft | 480 kts | 94° |
| 2026-05-04 05:29 | -32.08005 | 118.56898 | 36322 ft | 480 kts | 94° |
| 2026-05-04 05:29 | -32.08197 | 118.60823 | 36491 ft | 480 kts | 94° |
| 2026-05-04 05:29 | -32.08387 | 118.64750 | 36658 ft | 480 kts | 94° |
| 2026-05-04 05:31 | -32.09665 | 118.92201 | 37340 ft | 478 kts | 94° |
| 2026-05-04 05:31 | -32.09842 | 118.96118 | 37333 ft | 478 kts | 94° |
| 2026-05-04 05:32 | -32.10192 | 119.03951 | 37332 ft | 478 kts | 94° |
| 2026-05-04 05:33 | -32.10708 | 119.15699 | 37336 ft | 478 kts | 94° |
| 2026-05-04 05:33 | -32.11047 | 119.23542 | 37352 ft | 479 kts | 94° |
| 2026-05-04 05:34 | -32.11381 | 119.31398 | 37352 ft | 480 kts | 94° |
| 2026-05-04 05:34 | -32.11710 | 119.39236 | 37346 ft | 478 kts | 94° |
| 2026-05-04 05:35 | -32.12034 | 119.47070 | 37332 ft | 478 kts | 94° |
| 2026-05-04 05:35 | -32.12353 | 119.54900 | 37334 ft | 478 kts | 94° |
| 2026-05-04 05:36 | -32.12664 | 119.62673 | 37334 ft | 478 kts | 94° |
| 2026-05-04 05:36 | -32.12976 | 119.70575 | 37333 ft | 478 kts | 94° |
| 2026-05-04 05:37 | -32.13281 | 119.78407 | 37331 ft | 478 kts | 94° |
| 2026-05-04 05:37 | -32.13580 | 119.86236 | 37332 ft | 478 kts | 94° |
| 2026-05-04 05:38 | -32.14019 | 119.97935 | 37326 ft | 478 kts | 94° |
| 2026-05-04 05:38 | -32.14306 | 120.05762 | 37324 ft | 478 kts | 94° |
| 2026-05-04 05:39 | -32.14728 | 120.17504 | 37325 ft | 478 kts | 94° |
| 2026-05-04 05:40 | -32.15139 | 120.29259 | 37326 ft | 478 kts | 94° |
| 2026-05-04 05:40 | -32.15407 | 120.37094 | 37328 ft | 478 kts | 94° |
| 2026-05-04 05:41 | -32.15671 | 120.44935 | 37329 ft | 478 kts | 94° |
| 2026-05-04 05:41 | -32.15929 | 120.52778 | 37330 ft | 478 kts | 94° |
| 2026-05-04 05:42 | -32.16184 | 120.60630 | 37332 ft | 478 kts | 94° |
| 2026-05-04 05:42 | -32.16433 | 120.68478 | 37333 ft | 479 kts | 94° |
| 2026-05-04 05:43 | -32.16677 | 120.76327 | 37329 ft | 479 kts | 94° |
| 2026-05-04 05:45 | -32.17608 | 121.07764 | 37329 ft | 479 kts | 94° |
| 2026-05-04 05:47 | -32.18459 | 121.39177 | 37327 ft | 480 kts | 94° |
| 2026-05-04 05:47 | -32.18660 | 121.47046 | 37325 ft | 480 kts | 94° |
| 2026-05-04 05:48 | -32.18856 | 121.54917 | 37324 ft | 479 kts | 94° |
| 2026-05-04 05:48 | -32.19048 | 121.62780 | 37323 ft | 479 kts | 94° |
| 2026-05-04 05:49 | -32.19235 | 121.70644 | 37323 ft | 479 kts | 94° |
| 2026-05-04 05:49 | -32.19420 | 121.78513 | 37323 ft | 479 kts | 94° |
| 2026-05-04 05:51 | -32.20409 | 122.09942 | 37318 ft | 479 kts | 95° |
| 2026-05-04 05:52 | -32.20650 | 122.17810 | 37319 ft | 479 kts | 95° |
| 2026-05-04 05:52 | -32.20885 | 122.25682 | 37321 ft | 480 kts | 95° |
| 2026-05-04 05:54 | -32.21778 | 122.57178 | 37316 ft | 480 kts | 95° |
| 2026-05-04 05:55 | -32.21990 | 122.65061 | 37315 ft | 480 kts | 95° |
| 2026-05-04 05:55 | -32.22194 | 122.72889 | 37314 ft | 480 kts | 95° |
| 2026-05-04 05:56 | -32.22396 | 122.80770 | 37315 ft | 480 kts | 95° |
| 2026-05-04 05:56 | -32.22593 | 122.88657 | 37313 ft | 480 kts | 95° |
| 2026-05-04 05:57 | -32.22785 | 122.96547 | 37312 ft | 480 kts | 95° |
| 2026-05-04 05:57 | -32.22971 | 123.04431 | 37313 ft | 480 kts | 95° |
| 2026-05-04 05:58 | -32.23153 | 123.12315 | 37310 ft | 480 kts | 95° |
| 2026-05-04 05:58 | -32.23330 | 123.20199 | 37306 ft | 480 kts | 95° |
| 2026-05-04 05:59 | -32.23502 | 123.28084 | 37308 ft | 480 kts | 95° |
| 2026-05-04 05:59 | -32.23643 | 123.34691 | 37311 ft | 480 kts | 95° |
| 2026-05-04 06:00 | -32.23806 | 123.42577 | 37304 ft | 480 kts | 95° |
| 2026-05-04 06:00 | -32.23964 | 123.50458 | 37304 ft | 480 kts | 95° |
| 2026-05-04 06:01 | -32.24117 | 123.58288 | 37304 ft | 480 kts | 95° |
| 2026-05-04 06:03 | -32.24681 | 123.89827 | 37291 ft | 480 kts | 95° |
| 2026-05-04 06:05 | -32.25222 | 124.25279 | 37300 ft | 480 kts | 95° |
| 2026-05-04 06:06 | -32.25329 | 124.33156 | 37291 ft | 480 kts | 95° |
| 2026-05-04 06:06 | -32.25431 | 124.41040 | 37290 ft | 479 kts | 94° |
| 2026-05-04 06:07 | -32.25528 | 124.48912 | 37291 ft | 479 kts | 94° |
| 2026-05-04 06:07 | -32.25620 | 124.56727 | 37288 ft | 479 kts | 94° |
| 2026-05-04 06:08 | -32.25708 | 124.64657 | 37289 ft | 479 kts | 94° |
| 2026-05-04 06:08 | -32.25789 | 124.72468 | 37284 ft | 479 kts | 94° |
| 2026-05-04 06:09 | -32.25867 | 124.80340 | 37285 ft | 479 kts | 94° |
| 2026-05-04 06:11 | -32.26128 | 125.11795 | 37287 ft | 478 kts | 94° |
| 2026-05-04 06:13 | -32.26314 | 125.43214 | 37285 ft | 478 kts | 94° |
| 2026-05-04 06:14 | -32.28717 | 125.70305 | 37282 ft | 473 kts | 102° |
| 2026-05-04 06:15 | -32.29592 | 125.78013 | 37284 ft | 473 kts | 101° |
| 2026-05-04 06:15 | -32.30461 | 125.85723 | 37284 ft | 473 kts | 101° |
| 2026-05-04 06:16 | -32.31325 | 125.93429 | 37287 ft | 473 kts | 101° |
| 2026-05-04 06:16 | -32.32183 | 126.01135 | 37284 ft | 473 kts | 101° |
| 2026-05-04 06:17 | -32.33038 | 126.08845 | 37285 ft | 473 kts | 101° |
| 2026-05-04 06:17 | -32.33882 | 126.16507 | 37283 ft | 473 kts | 101° |
| 2026-05-04 06:18 | -32.34726 | 126.24210 | 37280 ft | 473 kts | 101° |
| 2026-05-04 06:20 | -32.38054 | 126.55033 | 37284 ft | 472 kts | 100° |
| 2026-05-04 06:21 | -32.40095 | 126.74293 | 37280 ft | 472 kts | 100° |
| 2026-05-04 06:22 | -32.40904 | 126.82005 | 37276 ft | 472 kts | 100° |
| 2026-05-04 06:25 | -32.46428 | 127.35984 | 37270 ft | 472 kts | 99° |
| 2026-05-04 06:26 | -32.47198 | 127.43704 | 37271 ft | 472 kts | 99° |
| 2026-05-04 06:26 | -32.47964 | 127.51418 | 37273 ft | 472 kts | 99° |
| 2026-05-04 06:27 | -32.49852 | 127.70668 | 37275 ft | 472 kts | 99° |
| 2026-05-04 06:28 | -32.50601 | 127.78388 | 37271 ft | 472 kts | 99° |
| 2026-05-04 06:28 | -32.51345 | 127.86106 | 37262 ft | 472 kts | 99° |
| 2026-05-04 06:29 | -32.52085 | 127.93824 | 37266 ft | 471 kts | 99° |
| 2026-05-04 06:29 | -32.52822 | 128.01544 | 37261 ft | 471 kts | 99° |
| 2026-05-04 06:30 | -32.53538 | 128.09259 | 37260 ft | 471 kts | 99° |
| 2026-05-04 06:30 | -32.54255 | 128.16976 | 37263 ft | 471 kts | 99° |
| 2026-05-04 06:31 | -32.54973 | 128.24687 | 37256 ft | 471 kts | 99° |
| 2026-05-04 06:31 | -32.55686 | 128.32400 | 37258 ft | 471 kts | 99° |
| 2026-05-04 06:33 | -32.58476 | 128.63245 | 37254 ft | 470 kts | 99° |
| 2026-05-04 06:34 | -32.59161 | 128.70958 | 37256 ft | 470 kts | 99° |
| 2026-05-04 06:34 | -32.59842 | 128.78665 | 37258 ft | 470 kts | 99° |
| 2026-05-04 06:36 | -32.62516 | 129.09502 | 37257 ft | 470 kts | 99° |
| 2026-05-04 06:37 | -32.63172 | 129.17211 | 37253 ft | 469 kts | 99° |
| 2026-05-04 06:37 | -32.63823 | 129.24913 | 37252 ft | 469 kts | 99° |
| 2026-05-04 06:38 | -32.64469 | 129.32612 | 37249 ft | 469 kts | 99° |
| 2026-05-04 06:40 | -32.66997 | 129.63298 | 37253 ft | 467 kts | 98° |
| 2026-05-04 06:40 | -32.67618 | 129.70977 | 37245 ft | 467 kts | 98° |
| 2026-05-04 06:41 | -32.68233 | 129.78644 | 37239 ft | 467 kts | 98° |
| 2026-05-04 06:41 | -32.68844 | 129.86314 | 37238 ft | 467 kts | 98° |
| 2026-05-04 06:42 | -32.69449 | 129.93981 | 37231 ft | 467 kts | 98° |
| 2026-05-04 06:44 | -32.71826 | 130.24671 | 37228 ft | 467 kts | 98° |
| 2026-05-04 06:44 | -32.72409 | 130.32354 | 37229 ft | 467 kts | 98° |
| 2026-05-04 06:45 | -32.72987 | 130.40043 | 37231 ft | 467 kts | 98° |
| 2026-05-04 06:45 | -32.73561 | 130.47734 | 37228 ft | 468 kts | 98° |
| 2026-05-04 06:46 | -32.74132 | 130.55435 | 37230 ft | 468 kts | 98° |
| 2026-05-04 06:46 | -32.74602 | 130.61836 | 37233 ft | 468 kts | 98° |
| 2026-05-04 06:48 | -32.76824 | 130.92720 | 37233 ft | 470 kts | 97° |
| 2026-05-04 06:50 | -32.79015 | 131.24251 | 37223 ft | 470 kts | 97° |
| 2026-05-04 06:51 | -32.79541 | 131.32004 | 37221 ft | 470 kts | 97° |
| 2026-05-04 06:51 | -32.80062 | 131.39753 | 37221 ft | 470 kts | 97° |
| 2026-05-04 06:52 | -32.80579 | 131.47506 | 37215 ft | 470 kts | 96° |
| 2026-05-04 06:52 | -32.81091 | 131.55257 | 37215 ft | 470 kts | 96° |
| 2026-05-04 06:53 | -32.81597 | 131.63010 | 37212 ft | 470 kts | 96° |
| 2026-05-04 06:53 | -32.82099 | 131.70762 | 37210 ft | 471 kts | 96° |
| 2026-05-04 06:54 | -32.82597 | 131.78521 | 37209 ft | 471 kts | 96° |
| 2026-05-04 06:54 | -32.83086 | 131.86228 | 37208 ft | 471 kts | 96° |
| 2026-05-04 06:55 | -32.83574 | 131.93993 | 37207 ft | 471 kts | 96° |
| 2026-05-04 06:55 | -32.84061 | 132.01806 | 37204 ft | 471 kts | 96° |
| 2026-05-04 06:57 | -32.85953 | 132.32873 | 37203 ft | 472 kts | 95° |
| 2026-05-04 06:58 | -32.86412 | 132.40673 | 37204 ft | 473 kts | 95° |
| 2026-05-04 06:58 | -32.86863 | 132.48472 | 37202 ft | 473 kts | 95° |
| 2026-05-04 06:59 | -32.87317 | 132.56278 | 37203 ft | 473 kts | 95° |
| 2026-05-04 06:59 | -32.87767 | 132.64092 | 37203 ft | 474 kts | 95° |
| 2026-05-04 07:01 | -32.89514 | 132.95384 | 37198 ft | 474 kts | 95° |
| 2026-05-04 07:02 | -32.89939 | 133.03218 | 37197 ft | 474 kts | 95° |
| 2026-05-04 07:02 | -32.90359 | 133.11051 | 37196 ft | 474 kts | 95° |
| 2026-05-04 07:03 | -32.90774 | 133.18882 | 37193 ft | 474 kts | 94° |
| 2026-05-04 07:03 | -32.91185 | 133.26726 | 37191 ft | 475 kts | 94° |
| 2026-05-04 07:04 | -32.91591 | 133.34564 | 37192 ft | 475 kts | 94° |
| 2026-05-04 07:04 | -32.91992 | 133.42409 | 37189 ft | 475 kts | 94° |
| 2026-05-04 07:05 | -32.92387 | 133.50247 | 37188 ft | 475 kts | 94° |
| 2026-05-04 07:05 | -32.92779 | 133.58100 | 37188 ft | 475 kts | 94° |
| 2026-05-04 07:06 | -32.93358 | 133.69889 | 37185 ft | 476 kts | 94° |
| 2026-05-04 07:07 | -32.93737 | 133.77748 | 37185 ft | 476 kts | 94° |
| 2026-05-04 07:09 | -32.95206 | 134.09201 | 37181 ft | 477 kts | 94° |
| 2026-05-04 07:09 | -32.95562 | 134.17091 | 37183 ft | 477 kts | 94° |
| 2026-05-04 07:10 | -32.95914 | 134.24986 | 37185 ft | 478 kts | 93° |
| 2026-05-04 07:12 | -32.97272 | 134.56635 | 37183 ft | 479 kts | 93° |
| 2026-05-04 07:12 | -32.97545 | 134.63225 | 37178 ft | 479 kts | 93° |
| 2026-05-04 07:13 | -32.97868 | 134.71154 | 37178 ft | 479 kts | 93° |
| 2026-05-04 07:13 | -32.98187 | 134.79087 | 37176 ft | 480 kts | 93° |
| 2026-05-04 07:14 | -32.98962 | 134.98937 | 37177 ft | 480 kts | 93° |
| 2026-05-04 07:15 | -32.99264 | 135.06872 | 37175 ft | 480 kts | 93° |
| 2026-05-04 07:15 | -32.99564 | 135.14821 | 37160 ft | 480 kts | 92° |
| 2026-05-04 07:16 | -32.99841 | 135.22767 | 37166 ft | 480 kts | 92° |
| 2026-05-04 07:16 | -33.00116 | 135.30708 | 37164 ft | 480 kts | 92° |
| 2026-05-04 07:17 | -33.00389 | 135.38655 | 37158 ft | 480 kts | 92° |
| 2026-05-04 07:17 | -33.00656 | 135.46606 | 37159 ft | 480 kts | 92° |
| 2026-05-04 07:18 | -33.00918 | 135.54564 | 37155 ft | 481 kts | 92° |
| 2026-05-04 07:18 | -33.01175 | 135.62515 | 37149 ft | 481 kts | 92° |
| 2026-05-04 07:19 | -33.01428 | 135.70479 | 37152 ft | 481 kts | 92° |
| 2026-05-04 07:19 | -33.01675 | 135.78439 | 37144 ft | 481 kts | 92° |
| 2026-05-04 07:20 | -33.01917 | 135.86414 | 37150 ft | 481 kts | 92° |
| 2026-05-04 07:20 | -33.02153 | 135.94333 | 37145 ft | 482 kts | 92° |
| 2026-05-04 07:22 | -33.03055 | 136.26290 | 37141 ft | 483 kts | 91° |
| 2026-05-04 07:23 | -33.03267 | 136.34294 | 37131 ft | 484 kts | 91° |
| 2026-05-04 07:23 | -33.03475 | 136.42306 | 37130 ft | 484 kts | 91° |
| 2026-05-04 07:24 | -33.03679 | 136.50327 | 37137 ft | 484 kts | 91° |
| 2026-05-04 07:24 | -33.03877 | 136.58344 | 37131 ft | 484 kts | 91° |
| 2026-05-04 07:26 | -33.04618 | 136.90479 | 37107 ft | 486 kts | 91° |
| 2026-05-04 07:27 | -33.04791 | 136.98532 | 37108 ft | 486 kts | 91° |
| 2026-05-04 07:27 | -33.04959 | 137.06590 | 37117 ft | 487 kts | 91° |
| 2026-05-04 07:28 | -33.05121 | 137.14606 | 37117 ft | 487 kts | 91° |
| 2026-05-04 07:28 | -33.05278 | 137.22677 | 37122 ft | 487 kts | 91° |
| 2026-05-04 07:29 | -33.05431 | 137.30758 | 37121 ft | 488 kts | 90° |
| 2026-05-04 07:29 | -33.05579 | 137.38850 | 37121 ft | 488 kts | 90° |
| 2026-05-04 07:30 | -33.05722 | 137.46951 | 37119 ft | 489 kts | 90° |
| 2026-05-04 07:30 | -33.06287 | 137.55025 | 37106 ft | 490 kts | 101° |
| 2026-05-04 07:31 | -33.07741 | 137.62953 | 37114 ft | 490 kts | 102° |
| 2026-05-04 07:33 | -33.13515 | 137.94839 | 37128 ft | 493 kts | 102° |
| 2026-05-04 07:33 | -33.14950 | 138.02844 | 37130 ft | 494 kts | 102° |
| 2026-05-04 07:34 | -33.16382 | 138.10864 | 37128 ft | 495 kts | 102° |
| 2026-05-04 07:34 | -33.17813 | 138.18907 | 37130 ft | 496 kts | 102° |
| 2026-05-04 07:35 | -33.19240 | 138.26964 | 37135 ft | 496 kts | 102° |
| 2026-05-04 07:35 | -33.20655 | 138.34980 | 37129 ft | 497 kts | 102° |
| 2026-05-04 07:36 | -33.22076 | 138.43067 | 37132 ft | 498 kts | 102° |
| 2026-05-04 07:38 | -33.27735 | 138.75585 | 37130 ft | 501 kts | 102° |
| 2026-05-04 07:38 | -33.29139 | 138.83740 | 37124 ft | 501 kts | 102° |
| 2026-05-04 07:39 | -33.30540 | 138.91908 | 37128 ft | 502 kts | 101° |
| 2026-05-04 07:39 | -33.31936 | 139.00077 | 37126 ft | 501 kts | 101° |
| 2026-05-04 07:40 | -33.33321 | 139.08217 | 37117 ft | 498 kts | 101° |
| 2026-05-04 07:40 | -33.34697 | 139.16339 | 37107 ft | 499 kts | 101° |
| 2026-05-04 07:41 | -33.36069 | 139.24474 | 37107 ft | 499 kts | 101° |
| 2026-05-04 07:41 | -33.37434 | 139.32599 | 37105 ft | 498 kts | 101° |
| 2026-05-04 07:42 | -33.38796 | 139.40729 | 37107 ft | 498 kts | 101° |
| 2026-05-04 07:42 | -33.40100 | 139.48866 | 37099 ft | 498 kts | 100° |
| 2026-05-04 07:43 | -33.41366 | 139.57022 | 37094 ft | 498 kts | 100° |
| 2026-05-04 07:43 | -33.42635 | 139.65172 | 37091 ft | 499 kts | 100° |
| 2026-05-04 07:44 | -33.43906 | 139.73338 | 37088 ft | 499 kts | 100° |
| 2026-05-04 07:44 | -33.45173 | 139.81513 | 37086 ft | 500 kts | 99° |
| 2026-05-04 07:45 | -33.46436 | 139.89707 | 37085 ft | 500 kts | 99° |
| 2026-05-04 07:45 | -33.47695 | 139.97906 | 37077 ft | 501 kts | 99° |
| 2026-05-04 07:46 | -33.48952 | 140.06129 | 37082 ft | 502 kts | 99° |
| 2026-05-04 07:46 | -33.50196 | 140.14312 | 37081 ft | 503 kts | 99° |
| 2026-05-04 07:47 | -33.51446 | 140.22563 | 37082 ft | 504 kts | 99° |
| 2026-05-04 07:49 | -33.56413 | 140.55756 | 37087 ft | 507 kts | 99° |
| 2026-05-04 07:49 | -33.57645 | 140.64088 | 37084 ft | 508 kts | 99° |
| 2026-05-04 07:50 | -33.58873 | 140.72433 | 37083 ft | 508 kts | 99° |
| 2026-05-04 07:50 | -33.60096 | 140.80785 | 37086 ft | 509 kts | 99° |
| 2026-05-04 07:51 | -33.61314 | 140.89145 | 37086 ft | 509 kts | 99° |
| 2026-05-04 07:51 | -33.62527 | 140.97510 | 37081 ft | 509 kts | 99° |
| 2026-05-04 07:52 | -33.63737 | 141.05885 | 37072 ft | 509 kts | 99° |
| 2026-05-04 07:52 | -33.64937 | 141.14264 | 37076 ft | 509 kts | 99° |
| 2026-05-04 07:54 | -33.69694 | 141.47825 | 37059 ft | 510 kts | 98° |
| 2026-05-04 07:55 | -33.70871 | 141.56230 | 37056 ft | 511 kts | 98° |
| 2026-05-04 07:55 | -33.72043 | 141.64649 | 37056 ft | 511 kts | 98° |
| 2026-05-04 07:56 | -33.73201 | 141.73011 | 37054 ft | 511 kts | 98° |
| 2026-05-04 07:56 | -33.74363 | 141.81444 | 37057 ft | 512 kts | 98° |
| 2026-05-04 07:57 | -33.75521 | 141.89892 | 37057 ft | 513 kts | 98° |
| 2026-05-04 07:57 | -33.76675 | 141.98352 | 37053 ft | 513 kts | 98° |
| 2026-05-04 07:58 | -33.77824 | 142.06827 | 37056 ft | 514 kts | 98° |
| 2026-05-04 07:58 | -33.78970 | 142.15315 | 37052 ft | 515 kts | 98° |
| 2026-05-04 07:59 | -33.80110 | 142.23815 | 37054 ft | 516 kts | 98° |
| 2026-05-04 07:59 | -33.81248 | 142.32339 | 37058 ft | 516 kts | 97° |
| 2026-05-04 08:00 | -33.82381 | 142.40873 | 37057 ft | 517 kts | 97° |
| 2026-05-04 08:02 | -33.86666 | 142.73695 | 37064 ft | 519 kts | 97° |
| 2026-05-04 08:02 | -33.87774 | 142.82287 | 37065 ft | 520 kts | 97° |
| 2026-05-04 08:03 | -33.88877 | 142.90892 | 37063 ft | 520 kts | 97° |
| 2026-05-04 08:03 | -33.89972 | 142.99503 | 37061 ft | 521 kts | 97° |
| 2026-05-04 08:04 | -33.91062 | 143.08116 | 37055 ft | 521 kts | 96° |
| 2026-05-04 08:04 | -33.92146 | 143.16742 | 37057 ft | 521 kts | 96° |
| 2026-05-04 08:05 | -33.93225 | 143.25364 | 37053 ft | 521 kts | 96° |
| 2026-05-04 08:05 | -33.94298 | 143.33998 | 37052 ft | 521 kts | 96° |
| 2026-05-04 08:06 | -33.95364 | 143.42624 | 37053 ft | 521 kts | 96° |
| 2026-05-04 08:06 | -33.96426 | 143.51270 | 37050 ft | 522 kts | 96° |
| 2026-05-04 08:08 | -34.00616 | 143.85892 | 37049 ft | 522 kts | 96° |
| 2026-05-04 08:11 | -34.05217 | 144.24912 | 37044 ft | 524 kts | 95° |
| 2026-05-04 08:11 | -34.06729 | 144.37975 | 37050 ft | 525 kts | 95° |
| 2026-05-04 08:12 | -34.07731 | 144.46701 | 37050 ft | 525 kts | 95° |
| 2026-05-04 08:12 | -34.08726 | 144.55428 | 37038 ft | 526 kts | 95° |
| 2026-05-04 08:13 | -34.09717 | 144.64164 | 37050 ft | 526 kts | 95° |
| 2026-05-04 08:13 | -34.10702 | 144.72915 | 37051 ft | 526 kts | 95° |
| 2026-05-04 08:14 | -34.11682 | 144.81673 | 37044 ft | 527 kts | 94° |
| 2026-05-04 08:16 | -34.15545 | 145.16784 | 37053 ft | 528 kts | 94° |
| 2026-05-04 08:16 | -34.16497 | 145.25583 | 37059 ft | 529 kts | 94° |
| 2026-05-04 08:17 | -34.17443 | 145.34386 | 37052 ft | 529 kts | 94° |
| 2026-05-04 08:17 | -34.18383 | 145.43194 | 37051 ft | 529 kts | 94° |
| 2026-05-04 08:19 | -34.22077 | 145.78423 | 37049 ft | 530 kts | 94° |
| 2026-05-04 08:20 | -34.22987 | 145.87259 | 37047 ft | 530 kts | 93° |
| 2026-05-04 08:20 | -34.23892 | 145.96099 | 37046 ft | 530 kts | 93° |
| 2026-05-04 08:21 | -34.24796 | 146.04949 | 37045 ft | 531 kts | 93° |
| 2026-05-04 08:21 | -34.25959 | 146.13771 | 37049 ft | 533 kts | 98° |
| 2026-05-04 08:22 | -34.27477 | 146.22549 | 37056 ft | 534 kts | 98° |